sensor_id;sensor_type;location;lat;lon;timestamp;temperature;humidity
45383;DHT22;42455;51.660;5.824;2023-03-14T00:00:25;14.3;87.5
45383;DHT22;42455;51.660;5.824;2023-03-14T00:05:31;14.3;88.0
45383;DHT22;42455;51.660;5.824;2023-03-14T00:10:37;14.3;88.0
45383;DHT22;42455;51.660;5.824;2023-03-14T00:15:43;14.2;88.5
45383;DHT22;42455;51.660;5.824;2023-03-14T00:20:49;14.1;89.0
45383;DHT22;42455;51.660;5.824;2023-03-14T00:25:58;14.0;89.0
45383;DHT22;42455;51.660;5.824;2023-03-14T00:31:03;13.9;89.5
45383;DHT22;42455;51.660;5.824;2023-03-14T00:36:11;13.9;89.5
45383;DHT22;42455;51.660;5.824;2023-03-14T00:41:16;13.9;90.0
45383;DHT22;42455;51.660;5.824;2023-03-14T00:46:21;13.8;90.0
45383;DHT22;42455;51.660;5.824;2023-03-14T00:51:27;13.8;90.0
45383;DHT22;42455;51.660;5.824;2023-03-14T00:56:33;13.7;90.0
45383;DHT22;42455;51.660;5.824;2023-03-14T01:01:40;13.7;90.0
45383;DHT22;42455;51.660;5.824;2023-03-14T01:06:44;13.6;89.5
45383;DHT22;42455;51.660;5.824;2023-03-14T01:11:51;13.5;89.0
45383;DHT22;42455;51.660;5.824;2023-03-14T01:16:56;13.5;89.0
45383;DHT22;42455;51.660;5.824;2023-03-14T01:22:03;13.4;88.5
45383;DHT22;42455;51.660;5.824;2023-03-14T01:27:08;13.4;88.5
45383;DHT22;42455;51.660;5.824;2023-03-14T01:32:15;13.4;88.5
45383;DHT22;42455;51.660;5.824;2023-03-14T01:37:21;13.4;88.5
45383;DHT22;42455;51.660;5.824;2023-03-14T01:42:27;13.4;88.0
45383;DHT22;42455;51.660;5.824;2023-03-14T01:47:33;13.4;88.0
45383;DHT22;42455;51.660;5.824;2023-03-14T01:52:42;13.4;88.0
45383;DHT22;42455;51.660;5.824;2023-03-14T01:57:49;13.4;87.5
45383;DHT22;42455;51.660;5.824;2023-03-14T02:02:56;13.3;87.5
45383;DHT22;42455;51.660;5.824;2023-03-14T02:07:59;13.3;87.5
45383;DHT22;42455;51.660;5.824;2023-03-14T02:13:05;13.3;87.5
45383;DHT22;42455;51.660;5.824;2023-03-14T02:18:12;13.3;87.5
45383;DHT22;42455;51.660;5.824;2023-03-14T02:23:24;13.3;87.5
45383;DHT22;42455;51.660;5.824;2023-03-14T02:28:23;13.3;87.5
45383;DHT22;42455;51.660;5.824;2023-03-14T02:33:29;13.3;87.5
45383;DHT22;42455;51.660;5.824;2023-03-14T02:38:41;13.3;87.5
45383;DHT22;42455;51.660;5.824;2023-03-14T02:43:42;13.3;87.5
45383;DHT22;42455;51.660;5.824;2023-03-14T02:48:50;13.3;87.5
45383;DHT22;42455;51.660;5.824;2023-03-14T02:53:54;13.3;87.5
45383;DHT22;42455;51.660;5.824;2023-03-14T02:59:02;13.3;87.5
45383;DHT22;42455;51.660;5.824;2023-03-14T03:04:05;13.3;87.5
45383;DHT22;42455;51.660;5.824;2023-03-14T03:09:12;13.3;87.5
45383;DHT22;42455;51.660;5.824;2023-03-14T03:14:18;13.3;87.5
45383;DHT22;42455;51.660;5.824;2023-03-14T03:19:24;13.3;87.5
45383;DHT22;42455;51.660;5.824;2023-03-14T03:24:30;13.2;87.5
45383;DHT22;42455;51.660;5.824;2023-03-14T03:29:36;13.2;88.0
45383;DHT22;42455;51.660;5.824;2023-03-14T03:34:43;13.2;88.0
45383;DHT22;42455;51.660;5.824;2023-03-14T03:39:50;13.2;88.0
45383;DHT22;42455;51.660;5.824;2023-03-14T03:44:55;13.2;88.5
45383;DHT22;42455;51.660;5.824;2023-03-14T03:50:01;13.1;88.5
45383;DHT22;42455;51.660;5.824;2023-03-14T03:55:08;13.1;88.5
45383;DHT22;42455;51.660;5.824;2023-03-14T04:00:14;13.1;88.5
45383;DHT22;42455;51.660;5.824;2023-03-14T04:05:20;13.1;88.5
45383;DHT22;42455;51.660;5.824;2023-03-14T04:10:26;13.1;88.5
45383;DHT22;42455;51.660;5.824;2023-03-14T04:15:32;13.1;88.5
45383;DHT22;42455;51.660;5.824;2023-03-14T04:20:39;13.1;88.5
45383;DHT22;42455;51.660;5.824;2023-03-14T04:25:45;13.0;89.0
45383;DHT22;42455;51.660;5.824;2023-03-14T04:30:51;13.0;89.0
45383;DHT22;42455;51.660;5.824;2023-03-14T04:35:57;13.0;89.0
45383;DHT22;42455;51.660;5.824;2023-03-14T04:41:03;13.0;89.0
45383;DHT22;42455;51.660;5.824;2023-03-14T04:46:10;12.9;88.5
45383;DHT22;42455;51.660;5.824;2023-03-14T04:51:15;12.9;88.5
45383;DHT22;42455;51.660;5.824;2023-03-14T04:56:21;12.8;88.5
45383;DHT22;42455;51.660;5.824;2023-03-14T05:01:26;12.8;89.0
45383;DHT22;42455;51.660;5.824;2023-03-14T05:06:33;12.7;89.0
45383;DHT22;42455;51.660;5.824;2023-03-14T05:11:38;12.7;89.5
45383;DHT22;42455;51.660;5.824;2023-03-14T05:16:44;12.7;89.5
45383;DHT22;42455;51.660;5.824;2023-03-14T05:21:50;12.6;90.0
45383;DHT22;42455;51.660;5.824;2023-03-14T05:26:57;12.6;90.0
45383;DHT22;42455;51.660;5.824;2023-03-14T05:32:03;12.5;90.5
45383;DHT22;42455;51.660;5.824;2023-03-14T05:37:09;12.5;91.0
45383;DHT22;42455;51.660;5.824;2023-03-14T05:42:15;12.4;91.0
45383;DHT22;42455;51.660;5.824;2023-03-14T05:47:21;12.4;91.5
45383;DHT22;42455;51.660;5.824;2023-03-14T05:52:27;12.3;91.5
45383;DHT22;42455;51.660;5.824;2023-03-14T05:57:34;12.3;92.0
45383;DHT22;42455;51.660;5.824;2023-03-14T06:02:40;12.2;92.0
45383;DHT22;42455;51.660;5.824;2023-03-14T06:07:46;12.2;92.0
45383;DHT22;42455;51.660;5.824;2023-03-14T06:12:52;12.2;92.5
45383;DHT22;42455;51.660;5.824;2023-03-14T06:17:58;12.2;93.0
45383;DHT22;42455;51.660;5.824;2023-03-14T06:23:05;12.2;93.0
45383;DHT22;42455;51.660;5.824;2023-03-14T06:28:11;12.2;93.0
45383;DHT22;42455;51.660;5.824;2023-03-14T06:33:17;12.2;93.5
45383;DHT22;42455;51.660;5.824;2023-03-14T06:38:23;12.2;93.5
45383;DHT22;42455;51.660;5.824;2023-03-14T06:43:30;12.2;93.5
45383;DHT22;42455;51.660;5.824;2023-03-14T06:48:36;12.2;94.0
45383;DHT22;42455;51.660;5.824;2023-03-14T06:53:42;12.3;94.0
45383;DHT22;42455;51.660;5.824;2023-03-14T06:58:47;12.3;94.0
45383;DHT22;42455;51.660;5.824;2023-03-14T07:03:53;12.3;94.5
45383;DHT22;42455;51.660;5.824;2023-03-14T07:09:00;12.4;94.5
45383;DHT22;42455;51.660;5.824;2023-03-14T07:14:05;12.4;94.5
45383;DHT22;42455;51.660;5.824;2023-03-14T07:19:11;12.4;94.5
45383;DHT22;42455;51.660;5.824;2023-03-14T07:24:17;12.5;95.0
45383;DHT22;42455;51.660;5.824;2023-03-14T07:29:23;12.6;95.0
45383;DHT22;42455;51.660;5.824;2023-03-14T07:34:30;12.7;95.0
45383;DHT22;42455;51.660;5.824;2023-03-14T07:39:36;12.7;95.0
45383;DHT22;42455;51.660;5.824;2023-03-14T07:44:42;12.7;95.0
45383;DHT22;42455;51.660;5.824;2023-03-14T07:49:48;12.7;95.0
45383;DHT22;42455;51.660;5.824;2023-03-14T07:54:54;12.7;94.5
45383;DHT22;42455;51.660;5.824;2023-03-14T08:00:01;12.5;93.0
45383;DHT22;42455;51.660;5.824;2023-03-14T08:05:07;12.2;92.5
45383;DHT22;42455;51.660;5.824;2023-03-14T08:10:13;11.9;92.5
45383;DHT22;42455;51.660;5.824;2023-03-14T08:15:19;11.7;92.5
45383;DHT22;42455;51.660;5.824;2023-03-14T08:20:28;11.5;93.0
45383;DHT22;42455;51.660;5.824;2023-03-14T08:25:32;11.3;93.0
45383;DHT22;42455;51.660;5.824;2023-03-14T08:30:38;11.1;93.0
45383;DHT22;42455;51.660;5.824;2023-03-14T08:35:44;11.0;93.5
45383;DHT22;42455;51.660;5.824;2023-03-14T08:40:54;10.9;93.5
45383;DHT22;42455;51.660;5.824;2023-03-14T08:45:57;10.9;94.0
45383;DHT22;42455;51.660;5.824;2023-03-14T08:51:05;10.9;94.0
45383;DHT22;42455;51.660;5.824;2023-03-14T08:56:09;10.9;94.0
45383;DHT22;42455;51.660;5.824;2023-03-14T09:01:14;10.9;94.5
45383;DHT22;42455;51.660;5.824;2023-03-14T09:06:20;10.9;94.5
45383;DHT22;42455;51.660;5.824;2023-03-14T09:11:27;10.9;94.5
45383;DHT22;42455;51.660;5.824;2023-03-14T09:16:33;10.9;94.0
45383;DHT22;42455;51.660;5.824;2023-03-14T09:21:39;10.9;94.0
45383;DHT22;42455;51.660;5.824;2023-03-14T09:26:45;10.8;94.0
45383;DHT22;42455;51.660;5.824;2023-03-14T09:31:52;10.7;93.0
45383;DHT22;42455;51.660;5.824;2023-03-14T09:36:58;10.4;92.5
45383;DHT22;42455;51.660;5.824;2023-03-14T09:42:14;10.2;92.5
45383;DHT22;42455;51.660;5.824;2023-03-14T09:47:12;10.0;93.0
45383;DHT22;42455;51.660;5.824;2023-03-14T09:52:19;9.9;93.5
45383;DHT22;42455;51.660;5.824;2023-03-14T09:57:25;9.8;93.5
45383;DHT22;42455;51.660;5.824;2023-03-14T10:02:34;9.7;93.5
45383;DHT22;42455;51.660;5.824;2023-03-14T10:07:35;9.8;94.0
45383;DHT22;42455;51.660;5.824;2023-03-14T10:12:45;9.9;94.0
45383;DHT22;42455;51.660;5.824;2023-03-14T10:17:51;10.0;93.5
45383;DHT22;42455;51.660;5.824;2023-03-14T10:22:54;10.0;93.5
45383;DHT22;42455;51.660;5.824;2023-03-14T10:28:01;10.0;93.0
45383;DHT22;42455;51.660;5.824;2023-03-14T10:33:15;10.0;92.5
45383;DHT22;42455;51.660;5.824;2023-03-14T10:38:15;9.9;92.0
45383;DHT22;42455;51.660;5.824;2023-03-14T10:43:21;9.9;92.0
45383;DHT22;42455;51.660;5.824;2023-03-14T10:48:31;9.9;91.5
45383;DHT22;42455;51.660;5.824;2023-03-14T10:53:33;9.9;91.5
45383;DHT22;42455;51.660;5.824;2023-03-14T10:58:39;10.0;91.0
45383;DHT22;42455;51.660;5.824;2023-03-14T11:03:53;10.0;91.0
45383;DHT22;42455;51.660;5.824;2023-03-14T11:08:52;10.2;91.0
45383;DHT22;42455;51.660;5.824;2023-03-14T11:14:12;10.3;91.0
45383;DHT22;42455;51.660;5.824;2023-03-14T11:19:11;10.4;90.5
45383;DHT22;42455;51.660;5.824;2023-03-14T11:24:29;10.4;90.0
45383;DHT22;42455;51.660;5.824;2023-03-14T11:29:19;10.5;90.0
45383;DHT22;42455;51.660;5.824;2023-03-14T11:34:48;10.6;89.5
45383;DHT22;42455;51.660;5.824;2023-03-14T11:39:35;10.3;87.0
45383;DHT22;42455;51.660;5.824;2023-03-14T11:44:37;10.0;87.5
45383;DHT22;42455;51.660;5.824;2023-03-14T11:49:42;9.8;88.0
45383;DHT22;42455;51.660;5.824;2023-03-14T11:54:48;9.6;89.0
45383;DHT22;42455;51.660;5.824;2023-03-14T12:00:02;9.6;90.0
45383;DHT22;42455;51.660;5.824;2023-03-14T12:05:26;9.7;90.0
45383;DHT22;42455;51.660;5.824;2023-03-14T12:10:03;9.7;90.0
45383;DHT22;42455;51.660;5.824;2023-03-14T12:15:18;9.8;89.5
45383;DHT22;42455;51.660;5.824;2023-03-14T12:20:17;9.7;89.5
45383;DHT22;42455;51.660;5.824;2023-03-14T12:25:22;9.6;90.0
45383;DHT22;42455;51.660;5.824;2023-03-14T12:30:30;9.6;90.0
45383;DHT22;42455;51.660;5.824;2023-03-14T12:35:37;9.7;90.0
45383;DHT22;42455;51.660;5.824;2023-03-14T12:40:41;9.9;90.0
45383;DHT22;42455;51.660;5.824;2023-03-14T12:46:07;10.0;88.5
45383;DHT22;42455;51.660;5.824;2023-03-14T12:50:54;10.1;88.5
45383;DHT22;42455;51.660;5.824;2023-03-14T12:56:25;10.3;88.0
45383;DHT22;42455;51.660;5.824;2023-03-14T13:01:04;10.5;88.0
45383;DHT22;42455;51.660;5.824;2023-03-14T13:06:10;10.7;86.5
45383;DHT22;42455;51.660;5.824;2023-03-14T13:11:16;10.9;85.0
45383;DHT22;42455;51.660;5.824;2023-03-14T13:16:22;11.0;83.5
45383;DHT22;42455;51.660;5.824;2023-03-14T13:21:28;11.1;82.5
45383;DHT22;42455;51.660;5.824;2023-03-14T13:26:35;11.1;80.5
45383;DHT22;42455;51.660;5.824;2023-03-14T13:31:43;11.1;80.5
45383;DHT22;42455;51.660;5.824;2023-03-14T13:36:46;11.1;80.0
45383;DHT22;42455;51.660;5.824;2023-03-14T13:41:53;11.2;79.0
45383;DHT22;42455;51.660;5.824;2023-03-14T13:46:59;11.2;78.0
45383;DHT22;42455;51.660;5.824;2023-03-14T13:52:21;11.3;78.0
45383;DHT22;42455;51.660;5.824;2023-03-14T13:57:10;11.4;77.5
45383;DHT22;42455;51.660;5.824;2023-03-14T14:02:17;11.5;76.5
45383;DHT22;42455;51.660;5.824;2023-03-14T14:07:24;11.6;77.0
45383;DHT22;42455;51.660;5.824;2023-03-14T14:12:32;11.7;76.5
45383;DHT22;42455;51.660;5.824;2023-03-14T14:17:41;11.8;75.0
45383;DHT22;42455;51.660;5.824;2023-03-14T14:22:42;11.9;74.0
45383;DHT22;42455;51.660;5.824;2023-03-14T14:27:50;11.9;72.0
45383;DHT22;42455;51.660;5.824;2023-03-14T14:33:09;11.7;72.5
45383;DHT22;42455;51.660;5.824;2023-03-14T14:38:00;11.7;72.0
45383;DHT22;42455;51.660;5.824;2023-03-14T14:43:06;11.6;71.5
45383;DHT22;42455;51.660;5.824;2023-03-14T14:48:13;11.5;70.5
45383;DHT22;42455;51.660;5.824;2023-03-14T14:53:23;11.4;71.0
45383;DHT22;42455;51.660;5.824;2023-03-14T14:58:26;11.4;71.5
45383;DHT22;42455;51.660;5.824;2023-03-14T15:03:33;11.4;71.5
45383;DHT22;42455;51.660;5.824;2023-03-14T15:08:37;11.4;71.0
45383;DHT22;42455;51.660;5.824;2023-03-14T15:13:43;11.4;71.0
45383;DHT22;42455;51.660;5.824;2023-03-14T15:18:53;11.3;70.5
45383;DHT22;42455;51.660;5.824;2023-03-14T15:23:55;11.3;70.0
45383;DHT22;42455;51.660;5.824;2023-03-14T15:29:01;11.1;69.5
45383;DHT22;42455;51.660;5.824;2023-03-14T15:34:08;11.0;69.5
45383;DHT22;42455;51.660;5.824;2023-03-14T15:39:13;10.9;69.5
45383;DHT22;42455;51.660;5.824;2023-03-14T15:44:20;10.7;69.5
45383;DHT22;42455;51.660;5.824;2023-03-14T15:49:26;10.6;69.5
45383;DHT22;42455;51.660;5.824;2023-03-14T15:54:32;10.5;69.5
45383;DHT22;42455;51.660;5.824;2023-03-14T15:59:38;10.3;69.5
45383;DHT22;42455;51.660;5.824;2023-03-14T16:04:45;10.2;69.5
45383;DHT22;42455;51.660;5.824;2023-03-14T16:09:52;10.1;69.0
45383;DHT22;42455;51.660;5.824;2023-03-14T16:14:57;9.9;69.5
45383;DHT22;42455;51.660;5.824;2023-03-14T16:20:03;9.8;69.5
45383;DHT22;42455;51.660;5.824;2023-03-14T16:25:09;9.7;69.5
45383;DHT22;42455;51.660;5.824;2023-03-14T16:30:14;9.6;69.5
45383;DHT22;42455;51.660;5.824;2023-03-14T16:35:20;9.5;70.0
45383;DHT22;42455;51.660;5.824;2023-03-14T16:40:25;9.4;70.0
45383;DHT22;42455;51.660;5.824;2023-03-14T16:45:31;9.3;70.5
45383;DHT22;42455;51.660;5.824;2023-03-14T16:50:38;9.3;70.5
45383;DHT22;42455;51.660;5.824;2023-03-14T16:55:43;9.2;70.5
45383;DHT22;42455;51.660;5.824;2023-03-14T17:00:49;9.1;70.0
45383;DHT22;42455;51.660;5.824;2023-03-14T17:05:55;9.0;70.0
45383;DHT22;42455;51.660;5.824;2023-03-14T17:11:01;8.9;70.0
45383;DHT22;42455;51.660;5.824;2023-03-14T17:16:08;8.8;70.5
45383;DHT22;42455;51.660;5.824;2023-03-14T17:21:14;8.8;70.5
45383;DHT22;42455;51.660;5.824;2023-03-14T17:26:20;8.7;70.5
45383;DHT22;42455;51.660;5.824;2023-03-14T17:31:26;8.7;71.0
45383;DHT22;42455;51.660;5.824;2023-03-14T17:36:32;8.6;71.0
45383;DHT22;42455;51.660;5.824;2023-03-14T17:41:39;8.6;71.5
45383;DHT22;42455;51.660;5.824;2023-03-14T17:46:45;8.5;71.5
45383;DHT22;42455;51.660;5.824;2023-03-14T17:51:51;8.5;71.5
45383;DHT22;42455;51.660;5.824;2023-03-14T17:56:57;8.5;71.5
45383;DHT22;42455;51.660;5.824;2023-03-14T18:02:04;8.4;72.0
45383;DHT22;42455;51.660;5.824;2023-03-14T18:07:10;8.4;72.0
45383;DHT22;42455;51.660;5.824;2023-03-14T18:12:16;8.4;72.5
45383;DHT22;42455;51.660;5.824;2023-03-14T18:17:22;8.3;72.5
45383;DHT22;42455;51.660;5.824;2023-03-14T18:22:28;8.2;72.5
45383;DHT22;42455;51.660;5.824;2023-03-14T18:27:35;8.2;72.5
45383;DHT22;42455;51.660;5.824;2023-03-14T18:32:41;8.1;72.5
45383;DHT22;42455;51.660;5.824;2023-03-14T18:37:46;8.1;72.5
45383;DHT22;42455;51.660;5.824;2023-03-14T18:42:53;8.0;72.5
45383;DHT22;42455;51.660;5.824;2023-03-14T18:47:58;7.9;72.5
45383;DHT22;42455;51.660;5.824;2023-03-14T18:53:04;7.9;72.5
45383;DHT22;42455;51.660;5.824;2023-03-14T18:58:10;7.8;72.5
45383;DHT22;42455;51.660;5.824;2023-03-14T19:03:16;7.7;73.0
45383;DHT22;42455;51.660;5.824;2023-03-14T19:08:23;7.6;73.0
45383;DHT22;42455;51.660;5.824;2023-03-14T19:13:29;7.5;73.0
45383;DHT22;42455;51.660;5.824;2023-03-14T19:18:35;7.5;73.5
45383;DHT22;42455;51.660;5.824;2023-03-14T19:23:42;7.4;73.5
45383;DHT22;42455;51.660;5.824;2023-03-14T19:28:47;7.3;74.0
45383;DHT22;42455;51.660;5.824;2023-03-14T19:33:53;7.3;74.0
45383;DHT22;42455;51.660;5.824;2023-03-14T19:39:00;7.2;74.0
45383;DHT22;42455;51.660;5.824;2023-03-14T19:44:06;7.1;74.5
45383;DHT22;42455;51.660;5.824;2023-03-14T19:49:12;7.1;74.5
45383;DHT22;42455;51.660;5.824;2023-03-14T19:54:18;7.0;74.5
45383;DHT22;42455;51.660;5.824;2023-03-14T19:59:24;6.9;75.0
45383;DHT22;42455;51.660;5.824;2023-03-14T20:04:31;6.9;75.0
45383;DHT22;42455;51.660;5.824;2023-03-14T20:09:37;6.8;75.0
45383;DHT22;42455;51.660;5.824;2023-03-14T20:14:43;6.7;75.0
45383;DHT22;42455;51.660;5.824;2023-03-14T20:19:49;6.6;75.5
45383;DHT22;42455;51.660;5.824;2023-03-14T20:24:55;6.5;75.5
45383;DHT22;42455;51.660;5.824;2023-03-14T20:30:02;6.5;76.0
45383;DHT22;42455;51.660;5.824;2023-03-14T20:35:10;6.4;76.0
45383;DHT22;42455;51.660;5.824;2023-03-14T20:40:13;6.4;76.0
45383;DHT22;42455;51.660;5.824;2023-03-14T20:45:19;6.3;76.0
45383;DHT22;42455;51.660;5.824;2023-03-14T20:50:26;6.3;76.0
45383;DHT22;42455;51.660;5.824;2023-03-14T20:55:31;6.2;76.0
45383;DHT22;42455;51.660;5.824;2023-03-14T21:00:37;6.2;76.5
45383;DHT22;42455;51.660;5.824;2023-03-14T21:05:45;6.1;76.5
45383;DHT22;42455;51.660;5.824;2023-03-14T21:10:51;6.1;77.0
45383;DHT22;42455;51.660;5.824;2023-03-14T21:15:58;6.0;77.0
45383;DHT22;42455;51.660;5.824;2023-03-14T21:21:02;6.1;77.5
45383;DHT22;42455;51.660;5.824;2023-03-14T21:26:08;6.1;77.5
45383;DHT22;42455;51.660;5.824;2023-03-14T21:31:14;6.1;78.0
45383;DHT22;42455;51.660;5.824;2023-03-14T21:36:20;6.1;78.0
45383;DHT22;42455;51.660;5.824;2023-03-14T21:41:26;6.2;78.0
45383;DHT22;42455;51.660;5.824;2023-03-14T21:46:33;6.3;78.0
45383;DHT22;42455;51.660;5.824;2023-03-14T21:51:39;6.3;78.0
45383;DHT22;42455;51.660;5.824;2023-03-14T21:56:45;6.3;78.0
45383;DHT22;42455;51.660;5.824;2023-03-14T22:01:51;6.3;78.0
45383;DHT22;42455;51.660;5.824;2023-03-14T22:06:57;6.4;78.0
45383;DHT22;42455;51.660;5.824;2023-03-14T22:12:04;6.4;78.0
45383;DHT22;42455;51.660;5.824;2023-03-14T22:17:10;6.4;78.5
45383;DHT22;42455;51.660;5.824;2023-03-14T22:22:16;6.4;78.5
45383;DHT22;42455;51.660;5.824;2023-03-14T22:27:22;6.4;78.5
45383;DHT22;42455;51.660;5.824;2023-03-14T22:32:29;6.4;79.0
45383;DHT22;42455;51.660;5.824;2023-03-14T22:37:35;6.4;79.5
45383;DHT22;42455;51.660;5.824;2023-03-14T22:42:40;6.4;79.5
45383;DHT22;42455;51.660;5.824;2023-03-14T22:47:46;6.5;79.5
45383;DHT22;42455;51.660;5.824;2023-03-14T22:52:51;6.5;80.0
45383;DHT22;42455;51.660;5.824;2023-03-14T22:57:58;6.5;80.0
45383;DHT22;42455;51.660;5.824;2023-03-14T23:03:04;6.6;80.5
45383;DHT22;42455;51.660;5.824;2023-03-14T23:08:10;6.6;81.0
45383;DHT22;42455;51.660;5.824;2023-03-14T23:13:16;6.6;81.0
45383;DHT22;42455;51.660;5.824;2023-03-14T23:18:23;6.6;81.0
45383;DHT22;42455;51.660;5.824;2023-03-14T23:23:29;6.6;81.5
45383;DHT22;42455;51.660;5.824;2023-03-14T23:28:36;6.6;82.0
45383;DHT22;42455;51.660;5.824;2023-03-14T23:33:42;6.6;82.0
45383;DHT22;42455;51.660;5.824;2023-03-14T23:38:47;6.5;82.5
45383;DHT22;42455;51.660;5.824;2023-03-14T23:43:54;6.4;83.0
45383;DHT22;42455;51.660;5.824;2023-03-14T23:49:00;6.4;83.0
45383;DHT22;42455;51.660;5.824;2023-03-14T23:54:06;6.3;83.5
45383;DHT22;42455;51.660;5.824;2023-03-14T23:59:12;6.2;83.5
